Latest Coastal Weather Observations for King Island Airport

IDT60701

Issued at 10:11 am EST Friday 28 August 2015 (issued every 10 minutes, with the page automatically refreshed every 10 minutes)

About coastal observations | Map of coastal stations | Coastal observations for TAS | Marine services | Other Formats
Station Details ID: 098017 Name: KING ISLAND AIRPORT Lat: -39.88 Lon: 143.88 Height: 37.0 m
Data from the previous 72 hours. | See also: Recent months at King Island Airport
Date/Time
EST
Temp

°C
Wind Pressure Rain
since 9am
mm
Weather Cloud Vis
km
Sea
Height
m
Swell
Dir
 
Speed
knots
Gust
knots
hPa Trend Height
m
Period
s
Dir
28/10:00am 10.4 SSE 13 19 1027.3 - 0.0 - Cloudy 10 - - - -
28/09:30am 9.9 SSE 12 18 1027.1 - 0.0 - Partly cloudy 10 - - - -
28/09:00am 9.7 SSE 12 19 1027.0 - 1.2 - Cloudy 10 - - - -
28/08:30am 9.4 SSE 11 14 1026.7 - 1.2 - Partly cloudy 10 - - - -
28/08:00am 8.8 SSE 11 16 1026.4 - 1.2 - Partly cloudy 10 - - - -
28/07:30am 9.0 S 9 14 1026.0 - 1.0 - Partly cloudy 7 - - - -
28/07:00am 8.3 SSE 7 10 1025.8 - 1.0 - Partly cloudy 10 - - - -
28/06:30am 9.2 S 7 9 1025.6 - 1.0 - Partly cloudy 10 - - - -
28/06:00am 10.0 S 8 12 1025.3 - 1.0 - Cloudy 10 - - - -
28/05:30am 9.6 S 8 12 1025.1 - 1.0 - Cloudy 10 - - - -
28/05:00am 9.3 S 8 13 1024.9 - 1.0 - Cloudy 10 - - - -
28/04:30am 9.0 S 6 9 1024.7 - 1.0 - Partly cloudy 10 - - - -
28/04:00am 8.2 S 6 8 1024.7 - 1.0 - Partly cloudy 10 - - - -
28/03:30am 8.4 S 5 8 1024.5 - 1.0 - Partly cloudy 10 - - - -
28/03:00am 8.1 S 7 9 1024.7 - 1.0 - Partly cloudy 10 - - - -
28/02:30am 8.4 S 7 9 1024.8 - 1.0 - Partly cloudy 10 - - - -
28/02:00am 9.0 S 8 14 1024.9 - 1.0 - Partly cloudy 10 - - - -
28/01:30am 8.8 S 9 13 1025.0 - 1.0 - Partly cloudy 10 - - - -
28/01:00am 8.7 S 8 16 1024.9 - 1.0 - Partly cloudy 10 - - - -
28/12:30am 9.2 SSW 15 22 1024.8 - 1.0 - Partly cloudy 10 - - - -
28/12:00am 9.3 SSW 15 20 1024.8 - 1.0 - Partly cloudy 10 - - - -
 
Date/Time
EST
Temp

°C
Wind Pressure Rain
since 9am
mm
Weather Cloud Vis
km
Sea
Height
m
Swell
Dir
 
Speed
knots
Gust
knots
hPa Trend Height
m
Period
s
Dir
27/11:30pm 9.6 SSW 11 18 1024.8 - 1.0 - Partly cloudy 10 - - - -
27/11:00pm 9.5 SSW 9 13 1024.8 - 1.0 - Partly cloudy 10 - - - -
27/10:30pm 9.9 SSW 13 19 1024.8 - 1.0 - Partly cloudy 10 - - - -
27/10:00pm 9.7 SSW 14 19 1024.8 - 1.0 - Partly cloudy 10 - - - -
27/09:30pm 9.4 S 9 14 1024.9 - 1.0 - Partly cloudy 10 - - - -
27/09:00pm 9.6 S 8 11 1024.7 - 1.0 - Mostly clear 10 - - - -
27/08:30pm 9.2 S 9 14 1024.5 - 1.0 - - 10 - - - -
27/08:00pm 9.5 S 8 12 1024.4 - 1.0 - Partly cloudy 10 - - - -
27/07:30pm 8.8 S 7 10 1024.3 - 1.0 - Partly cloudy 10 - - - -
27/07:00pm 8.3 S 7 10 1024.0 - 1.0 - - 10 - - - -
27/06:30pm 8.8 S 8 13 1023.8 - 1.0 - - 10 - - - -
27/06:00pm 9.5 S 9 14 1023.3 - 1.0 - - 10 - - - -
27/05:30pm 10.3 S 9 15 1023.0 - 1.0 - - 10 - - - -
27/05:00pm 10.9 S 11 16 1022.7 - 1.0 - Partly cloudy 10 - - - -
27/04:30pm 11.6 S 11 18 1022.4 - 1.0 - Partly cloudy 10 - - - -
27/04:00pm 11.8 S 12 17 1022.2 - 1.0 - Partly cloudy 10 - - - -
27/03:30pm 11.9 S 12 18 1022.0 - 1.0 - Partly cloudy 10 - - - -
27/03:00pm 11.8 SSE 10 14 1021.8 - 1.0 - Cloudy 10 - - - -
27/02:30pm 11.6 S 9 14 1021.6 - 1.0 - Partly cloudy 10 - - - -
27/02:00pm 12.1 SSE 9 15 1021.6 - 1.0 - Partly cloudy 10 - - - -
27/01:30pm 11.9 SE 11 16 1021.7 - 1.0 - Partly cloudy 9 - - - -
27/01:13pm 11.7 SE 13 17 1021.8 - 0.4 - Partly cloudy 10 - - - -
27/01:00pm 11.9 SE 14 19 1021.8 - 0.2 - Partly cloudy 5 - - - -
27/12:57pm 12.6 SE 13 18 1021.8 - 0.2 - Partly cloudy 5 - - - -
27/12:30pm 12.6 SSE 12 17 1022.0 - 0.0 - Partly cloudy 8 - - - -
27/12:00pm 13.2 SE 10 14 1021.9 - 0.0 - Mostly cloudy 10 - - - -
27/11:30am 13.2 SE 9 11 1022.4 - 0.0 - Partly cloudy 10 - - - -
27/11:00am 13.2 SE 7 11 1022.3 - 0.0 - Partly cloudy 10 - - - -
27/10:32am 12.8 SSE 5 7 1022.5 - 0.0 - Partly cloudy 10 - - - -
27/10:30am 12.9 SSE 5 6 1022.5 - 0.0 - Partly cloudy 10 - - - -
27/10:12am 12.5 SSE 5 6 1022.5 - 0.0 - Partly cloudy 10 - - - -
27/10:00am 12.4 SSE 4 6 1022.5 - 0.0 - Partly cloudy 10 - - - -
27/09:41am 12.3 ESE 5 7 1022.6 - 0.0 - Partly cloudy 10 - - - -
27/09:30am 12.3 ESE 6 8 1022.6 - 0.0 - Partly cloudy 10 - - - -
27/09:04am 12.1 E 6 8 1022.6 - 0.0 - Partly cloudy 10 - - - -
27/09:00am 12.4 ESE 6 8 1022.6 - 0.0 - Cloudy 10 - - - -
27/08:30am 11.7 ESE 5 7 1022.6 - 0.0 - Partly cloudy 10 - - - -
27/08:00am 11.1 SE 4 5 1022.3 - 0.0 - Partly cloudy 10 - - - -
27/07:30am 10.8 ESE 6 7 1022.0 - 0.0 - Partly cloudy 10 - - - -
27/07:00am 10.4 ESE 4 5 1021.8 - 0.0 - Partly cloudy 10 - - - -
27/06:30am 10.5 SE 4 5 1021.5 - 0.0 - Partly cloudy 10 - - - -
27/06:00am 10.7 E 6 7 1021.3 - 0.0 - Cloudy 10 - - - -
27/05:46am 10.5 ESE 5 6 1021.3 - 0.0 - Partly cloudy 10 - - - -
27/05:30am 10.5 ESE 5 6 1021.3 - 0.0 - Partly cloudy 10 - - - -
27/05:00am 10.6 ESE 4 5 1021.2 - 0.0 - Cloudy 10 - - - -
27/04:30am 10.8 E 5 6 1021.3 - 0.0 - Partly cloudy 10 - - - -
27/04:00am 11.0 ENE 5 7 1021.5 - 0.0 - Partly cloudy 10 - - - -
27/03:30am 10.9 E 6 7 1021.6 - 0.0 - Partly cloudy 10 - - - -
27/03:00am 11.0 E 7 9 1021.9 - 0.0 - Cloudy 10 - - - -
27/02:32am 11.0 E 7 10 1022.2 - 0.0 - Partly cloudy 10 - - - -
27/02:30am 11.1 E 7 9 1022.2 - 0.0 - Partly cloudy 10 - - - -
27/02:12am 11.1 ENE 7 10 1022.4 - 0.0 - Partly cloudy 10 - - - -
27/02:00am 11.2 ENE 7 11 1022.5 - 0.0 - Partly cloudy 10 - - - -
27/01:54am 11.2 ENE 7 10 1022.6 - 0.0 - Partly cloudy 10 - - - -
27/01:30am 11.1 ENE 8 14 1022.7 - 0.0 - Partly cloudy 10 - - - -
27/01:00am 11.2 E 10 13 1023.0 - 0.0 - Partly cloudy 10 - - - -
27/12:49am 11.1 E 11 16 1023.1 - 0.0 - Partly cloudy 10 - - - -
27/12:44am 11.1 E 11 16 1023.2 - 0.0 - Partly cloudy 10 - - - -
27/12:30am 11.1 E 10 14 1023.3 - 0.0 - Partly cloudy 10 - - - -
27/12:18am 11.1 E 12 17 1023.3 - 0.0 - Partly cloudy 5 - - - -
27/12:00am 11.1 E 12 17 1023.5 - 0.0 Drizzle Cloudy 10 - - - -
 
Date/Time
EST
Temp

°C
Wind Pressure Rain
since 9am
mm
Weather Cloud Vis
km
Sea
Height
m
Swell
Dir
 
Speed
knots
Gust
knots
hPa Trend Height
m
Period
s
Dir
26/11:43pm 11.2 E 11 15 1023.6 - 0.0 - Partly cloudy 10 - - - -
26/11:32pm 11.2 E 11 15 1023.7 - 0.0 - Partly cloudy 10 - - - -
26/11:30pm 11.2 E 11 15 1023.7 - 0.0 - Partly cloudy 10 - - - -
26/11:18pm 11.2 E 11 16 1023.9 - 0.0 - Partly cloudy 10 - - - -
26/11:00pm 11.2 E 11 16 1024.1 - 0.0 - Partly cloudy 10 - - - -
26/10:42pm 11.1 E 11 16 1024.3 - 0.0 - Partly cloudy 10 - - - -
26/10:38pm 11.1 E 12 17 1024.3 - 0.0 - Partly cloudy 10 - - - -
26/10:30pm 11.1 E 12 17 1024.3 - 0.0 - Partly cloudy 10 - - - -
26/10:00pm 11.0 E 11 16 1024.7 - 0.0 - Partly cloudy 10 - - - -
26/09:58pm 11.0 E 11 16 1024.7 - 0.0 - Partly cloudy 10 - - - -
26/09:40pm 11.0 E 12 16 1024.7 - 0.0 - Partly cloudy 10 - - - -
26/09:30pm 11.0 E 12 16 1024.8 - 0.0 - Partly cloudy 10 - - - -
26/09:29pm 11.0 E 12 17 1024.8 - 0.0 - Partly cloudy 10 - - - -
26/09:00pm 11.0 E 12 17 1024.9 - 0.0 - Cloudy 10 - - - -
26/08:30pm 10.9 E 13 17 1024.8 - 0.0 - Partly cloudy 10 - - - -
26/08:00pm 10.8 E 14 18 1024.9 - 0.0 - Partly cloudy 10 - - - -
26/07:30pm 10.9 E 13 17 1025.1 - 0.0 - Partly cloudy 10 - - - -
26/07:00pm 10.8 E 14 19 1025.2 - 0.0 - Partly cloudy 10 - - - -
26/06:30pm 10.6 E 13 17 1025.2 - 0.0 - Partly cloudy 10 - - - -
26/06:00pm 10.8 E 14 20 1025.2 - 0.0 - Cloudy 10 - - - -
26/05:30pm 11.0 E 15 19 1025.1 - 0.0 - Partly cloudy 10 - - - -
26/05:00pm 11.1 E 15 21 1024.9 - 0.0 - Partly cloudy 10 - - - -
26/04:30pm 11.5 E 16 23 1025.0 - 0.0 - Partly cloudy 10 - - - -
26/04:00pm 11.5 E 16 22 1024.9 - 0.0 - Partly cloudy 10 - - - -
26/03:30pm 11.9 E 15 21 1025.2 - 0.0 - Partly cloudy 10 - - - -
26/03:00pm 12.5 E 17 22 1025.3 - 0.0 - Cloudy 10 - - - -
26/02:30pm 12.9 E 18 25 1025.6 - 0.0 - - 10 - - - -
26/02:00pm 13.3 E 17 22 1025.8 - 0.0 - Partly cloudy 10 - - - -
26/01:30pm 12.7 E 19 26 1026.2 - 0.0 - Partly cloudy 10 - - - -
26/01:00pm 12.2 E 16 21 1026.7 - 0.0 - - 10 - - - -
26/12:30pm 12.4 E 16 21 1027.1 - 0.0 - - 10 - - - -
26/12:00pm 12.3 E 18 23 1027.7 - 0.0 - - 10 - - - -
26/11:30am 13.1 E 17 22 1028.1 - 0.0 - Partly cloudy 10 - - - -
26/11:00am 12.5 E 17 23 1028.4 - 0.0 - - 10 - - - -
26/10:30am 12.5 E 17 22 1028.6 - 0.0 - Partly cloudy 10 - - - -
26/10:00am 12.2 E 17 23 1028.8 - 0.0 - - 10 - - - -
26/09:30am 11.7 E 13 19 1028.9 - 0.0 - - 10 - - - -
26/09:00am 10.8 E 11 16 1028.9 - 0.2 - - 10 - - - -
26/08:30am 9.6 E 9 11 1028.8 - 0.2 - - 10 - - - -
26/08:00am 7.8 ESE 7 9 1028.7 - 0.2 - - 10 - - - -
26/07:30am 7.0 SE 8 9 1028.6 - 0.2 - - 10 - - - -
26/07:00am 6.5 SE 6 7 1028.4 - 0.2 - - 10 - - - -
26/06:30am 5.9 SE 6 7 1028.4 - 0.2 - - 10 - - - -
26/06:00am 6.9 SE 7 8 1028.3 - 0.0 - - 10 - - - -
26/05:30am 6.9 SE 7 8 1028.3 - 0.0 - - 10 - - - -
26/05:00am 6.9 SE 7 9 1028.5 - 0.0 - - 10 - - - -
26/04:30am 7.1 SE 8 11 1028.4 - 0.0 - Partly cloudy 10 - - - -
26/04:00am 6.6 SE 7 8 1028.5 - 0.0 - Partly cloudy 10 - - - -
26/03:30am 6.9 SE 8 9 1028.7 - 0.0 - - 10 - - - -
26/03:00am 7.1 SE 8 10 1028.8 - 0.0 - - 10 - - - -
26/02:30am 6.6 SE 8 9 1029.1 - 0.0 - - 10 - - - -
26/02:00am 6.3 SE 7 9 1029.3 - 0.0 - - 10 - - - -
26/01:30am 5.9 SE 7 8 1029.7 - 0.0 - - 10 - - - -
26/01:00am 6.2 SE 7 8 1029.8 - 0.0 - - 10 - - - -
26/12:30am 5.8 SE 7 9 1029.9 - 0.0 - - 10 - - - -
26/12:00am 4.9 ESE 4 6 1030.0 - 0.0 - - 10 - - - -
 
Date/Time
EST
Temp

°C
Wind Pressure Rain
since 9am
mm
Weather Cloud Vis
km
Sea
Height
m
Swell
Dir
 
Speed
knots
Gust
knots
hPa Trend Height
m
Period
s
Dir
25/11:30pm 5.7 SE 7 8 1030.1 - 0.0 - - 10 - - - -
25/11:00pm 5.6 SE 6 7 1030.1 - 0.0 - - 10 - - - -
25/10:30pm 4.7 SE 7 8 1030.2 - 0.0 - - 10 - - - -
25/10:00pm 5.0 SSE 6 8 1030.1 - 0.0 - - 10 - - - -
25/09:30pm 5.3 SSE 6 9 1030.2 - 0.0 - - 10 - - - -
25/09:00pm 5.5 SE 6 7 1030.2 - 0.0 - - 10 - - - -
25/08:30pm 5.9 SE 5 6 1030.2 - 0.0 - - 10 - - - -
25/08:00pm 6.0 SE 5 6 1030.0 - 0.0 - - 10 - - - -
25/07:30pm 6.6 SE 5 6 1029.9 - 0.0 - - 10 - - - -
25/07:00pm 6.8 SE 4 5 1029.7 - 0.0 - - 10 - - - -
25/06:30pm 7.1 SSE 6 7 1029.4 - 0.0 - - 10 - - - -
25/06:00pm 7.6 SSE 6 7 1029.2 - 0.0 - - 10 - - - -
25/05:30pm 9.4 SSE 7 11 1029.0 - 0.0 - Partly cloudy 10 - - - -
25/05:00pm 10.4 SE 10 13 1028.9 - 0.0 - Partly cloudy 10 - - - -
25/04:30pm 11.0 SSE 8 12 1028.7 - 0.0 - Partly cloudy 10 - - - -
25/04:00pm 11.4 SSE 9 14 1028.5 - 0.0 - Partly cloudy 10 - - - -
25/03:30pm 10.7 SSE 10 15 1028.6 - 0.0 - Partly cloudy 10 - - - -
25/03:00pm 12.0 SSE 8 14 1028.4 - 0.0 - Partly cloudy 10 - - - -
25/02:30pm 11.6 SSE 9 12 1028.5 - 0.0 - Partly cloudy 10 - - - -
25/02:00pm 12.3 SE 10 15 1028.6 - 0.0 - Partly cloudy 10 - - - -
25/01:30pm 11.6 SE 11 16 1028.8 - 0.0 - Partly cloudy 10 - - - -
25/01:00pm 12.1 SE 11 16 1029.1 - 0.0 - Partly cloudy 10 - - - -
25/12:30pm 11.4 SE 10 15 1029.2 - 0.0 - Partly cloudy 10 - - - -
25/12:00pm 11.8 SSE 11 16 1029.3 - 0.0 - Mostly clear 10 - - - -
25/11:30am 11.4 SE 12 15 1029.4 - 0.0 - - 10 - - - -
25/11:00am 11.7 SE 11 17 1029.4 - 0.0 - Partly cloudy 10 - - - -
25/10:30am 10.7 SE 11 15 1029.5 - 0.0 - Partly cloudy 10 - - - -

Other Formats:

Comma delimited format used in spreadsheet applications
http://www.bom.gov.au/fwo/IDT60701/IDT60701.94850.axf

JavaScript Object Notation format (JSON) in row-major order
http://www.bom.gov.au/fwo/IDT60701/IDT60701.94850.json